PWSweather.com
Personal Weather Stations
Station Observations
MAKAWAOWX1
Up Country Maui, Makawao, HI 96768

Up Country MauiMakawao, HI 96768

Lat: 20.856944, Lon: -156.3149667

Elevation: 1500

Station Type: Davis Vantage Pro

www.dwayneyamato@hawaiiantel.net

High Low Average
Temperature 77.8°F25.4°C 66.3°F19.1°C 70.0°F21.1°C
Dew Point 66.9°F19.4°C 56.6°F13.7°C 62.8°F17.1°C
Winds 11.5 mph 18.5 kmh Calm Calm 4.0 mph E6.4 kmh E
Wind Gusts 18.4 mph29.6 kmh -- 10.0 mph16.1 kmh
Humidity 88% 67% 78%
Pressure 29.97 in1014.9 mb 29.89 in1012.2 mb -
Precipitation 0.01 in0.3 mm - -
Hour Temp Dew Point Humidity Winds Wind Gusts Pressure Precip Precip Rate Daily Precip Total
12:00 AM 67.2°F19.6°C 61.9°F16.6°C 83% Calm Calm 3.5 mph5.6 kmh 29.95 in1014.2 mb - 0.01 in0.3 mm 0.01 in0.3 mm
01:00 AM 67.4°F19.7°C 61.0°F16.1°C 80% 11.5 mph E18.5 kmh E 17.3 mph27.8 kmh 29.91 in1012.9 mb - 0.00 in0.0 mm 0.01 in0.3 mm
02:00 AM 68.0°F20.0°C 58.6°F14.8°C 72% 2.3 mph E3.7 kmh E 11.5 mph18.5 kmh 29.90 in1012.5 mb - 0.00 in0.0 mm 0.01 in0.3 mm
03:00 AM 68.0°F20.0°C 57.4°F14.1°C 69% Calm Calm -- 29.90 in1012.5 mb - 0.00 in0.0 mm 0.01 in0.3 mm
04:00 AM 66.3°F19.1°C 56.6°F13.7°C 71% Calm Calm -- 29.89 in1012.2 mb - 0.00 in0.0 mm 0.01 in0.3 mm
05:00 AM 67.8°F19.9°C 57.3°F14.1°C 69% 4.6 mph ENE7.4 kmh ENE 9.2 mph14.8 kmh 29.90 in1012.5 mb - 0.00 in0.0 mm 0.01 in0.3 mm
06:00 AM 67.1°F19.5°C 59.6°F15.3°C 77% 5.8 mph E9.3 kmh E 9.2 mph14.8 kmh 29.92 in1013.2 mb - 0.00 in0.0 mm 0.01 in0.3 mm
07:00 AM 68.9°F20.5°C 62.8°F17.1°C 81% 4.6 mph E7.4 kmh E 10.4 mph16.7 kmh 29.94 in1013.9 mb - 0.00 in0.0 mm 0.01 in0.3 mm
08:00 AM 71.2°F21.8°C 64.8°F18.2°C 80% 1.2 mph E1.9 kmh E 6.9 mph11.1 kmh 29.95 in1014.2 mb - 0.00 in0.0 mm 0.01 in0.3 mm
09:00 AM 75.0°F23.9°C 66.9°F19.4°C 76% 5.8 mph NE9.3 kmh NE 8.1 mph13.0 kmh 29.95 in1014.2 mb - 0.00 in0.0 mm 0.01 in0.3 mm
10:00 AM 71.9°F22.2°C 65.7°F18.7°C 81% Calm Calm 8.1 mph13.0 kmh 29.95 in1014.2 mb - 0.00 in0.0 mm 0.01 in0.3 mm
11:00 AM 71.6°F22.0°C 65.5°F18.6°C 81% 2.3 mph E3.7 kmh E 12.7 mph20.4 kmh 29.95 in1014.2 mb - 0.00 in0.0 mm 0.01 in0.3 mm
12:00 PM 70.3°F21.3°C 66.6°F19.2°C 88% 3.5 mph ENE5.6 kmh ENE 11.5 mph18.5 kmh 29.95 in1014.2 mb - 0.00 in0.0 mm 0.01 in0.3 mm
01:00 PM 71.3°F21.8°C 66.9°F19.4°C 86% 2.3 mph E3.7 kmh E 8.1 mph13.0 kmh 29.93 in1013.5 mb - 0.01 in0.3 mm 0.01 in0.3 mm
03:00 PM 77.8°F25.4°C 66.0°F18.9°C 67% 4.6 mph NE7.4 kmh NE 18.4 mph29.6 kmh 29.90 in1012.5 mb - 0.00 in0.0 mm 0.01 in0.3 mm
04:00 PM 72.2°F22.3°C 66.0°F18.9°C 81% 9.2 mph E14.8 kmh E 11.5 mph18.5 kmh 29.90 in1012.5 mb - 0.00 in0.0 mm 0.01 in0.3 mm
05:00 PM 73.6°F23.1°C 65.2°F18.4°C 75% 8.1 mph E13.0 kmh E 13.8 mph22.2 kmh 29.89 in1012.2 mb - 0.00 in0.0 mm 0.01 in0.3 mm
06:00 PM 70.4°F21.3°C 63.2°F17.3°C 78% 10.4 mph ENE16.7 kmh ENE 17.3 mph27.8 kmh 29.91 in1012.9 mb - 0.00 in0.0 mm 0.01 in0.3 mm
07:00 PM 69.4°F20.8°C 62.6°F17.0°C 79% 9.2 mph E14.8 kmh E 16.1 mph25.9 kmh 29.92 in1013.2 mb - 0.00 in0.0 mm 0.01 in0.3 mm
08:00 PM 68.4°F20.2°C 62.3°F16.8°C 81% Calm Calm -- 29.94 in1013.9 mb - 0.00 in0.0 mm 0.01 in0.3 mm
09:00 PM 68.6°F20.3°C 62.5°F16.9°C 81% 6.9 mph E11.1 kmh E 13.8 mph22.2 kmh 29.94 in1013.9 mb - 0.00 in0.0 mm 0.01 in0.3 mm
10:00 PM 69.0°F20.6°C 61.5°F16.4°C 77% 6.9 mph ENE11.1 kmh ENE 12.7 mph20.4 kmh 29.95 in1014.2 mb - 0.00 in0.0 mm 0.01 in0.3 mm
11:00 PM 67.6°F19.8°C 62.6°F17.0°C 84% 2.3 mph E3.7 kmh E 9.2 mph14.8 kmh 29.97 in1014.9 mb - 0.00 in0.0 mm 0.01 in0.3 mm